createdAt,value
2019-06-10T15:57:30.000Z,25.6
2019-06-10T16:07:30.000Z,25.4
2019-06-10T16:17:30.000Z,24.9
2019-06-10T16:27:30.000Z,24.5
2019-06-10T16:37:32.000Z,24.2
2019-06-10T16:47:33.000Z,24.2
2019-06-10T16:57:30.000Z,24.2
2019-06-10T17:07:30.000Z,24.2
2019-06-10T17:17:30.000Z,24.1
2019-06-10T17:27:30.000Z,24.1
2019-06-10T17:47:31.000Z,24.1
2019-06-10T17:57:32.000Z,24.1
2019-06-10T18:07:31.000Z,24.1
2019-06-10T18:17:31.000Z,24.1
2019-06-10T18:27:34.000Z,24.1
2019-06-10T18:37:31.000Z,24.1
2019-06-10T18:47:31.000Z,24.1
2019-06-10T18:57:33.000Z,24
2019-06-10T19:07:31.000Z,24.1
2019-06-10T19:17:31.000Z,24
2019-06-10T19:27:31.000Z,23.8
2019-06-10T19:37:31.000Z,23.8
2019-06-10T19:47:32.000Z,23.6
2019-06-10T19:57:32.000Z,23.6
2019-06-10T20:07:31.000Z,23.5
2019-06-10T20:17:31.000Z,23.5
2019-06-10T20:27:31.000Z,23.5
2019-06-10T20:37:33.000Z,23.4
2019-06-10T20:47:31.000Z,23.3
2019-06-10T20:57:31.000Z,23.4
2019-06-10T21:07:31.000Z,23.4
2019-06-10T21:17:31.000Z,23.3
2019-06-10T21:27:31.000Z,23.3
2019-06-10T21:37:31.000Z,23.2
2019-06-10T21:47:31.000Z,23.2
2019-06-10T21:57:31.000Z,23.6
2019-06-10T22:07:31.000Z,23.6
2019-06-10T22:17:31.000Z,23.6
2019-06-10T22:27:32.000Z,23.5
2019-06-10T22:37:31.000Z,23.5
2019-06-10T22:47:31.000Z,23.4
2019-06-10T22:57:31.000Z,23.4
2019-06-10T23:07:31.000Z,23.4
2019-06-10T23:17:32.000Z,23.3
2019-06-10T23:27:31.000Z,23.4
2019-06-10T23:37:31.000Z,23.3
2019-06-10T23:47:31.000Z,23.3
2019-06-10T23:57:31.000Z,23.2
